Terminal Aerodrome Forecast
Issued by NWS

Home | Current Version | Previous Version | Text Only | Print | Product List | Glossary On
Versions: 1 2 3 4 5 6 7 8 9 10 11 12 13 14 15 16 17 18 19 20 21 22 23 24 25 26 27 28
607
FTUS43 KAPX 291437 AAB
TAFTVC
TAF AMD
KTVC 291437Z 2915/3012 03004KT 1/4SM FG VV002
     FM291630 04006KT P6SM FEW040 FEW200
     FM292100 02007KT P6SM SCT040 BKN120
     FM300200 09004KT P6SM BKN100=

USA.gov is the U.S. government's official web portal to all federal, state and local government web resources and services.